Time;durP1;ratioP1;P1;durP2;ratioP2;P2;SDS_P1;SDS_P2;PMS_P1;PMS_P2;Temp;Humidity;BMP_temperature;BMP_pressure;BME280_temperature;BME280_humidity;BME280_pressure;Samples;Min_cycle;Max_cycle;Signal;HPM_P1;HPM_P2
2024/01/12 00:01:58;;;;;;;;;;;-3275.40;85.10;;;;;;5098654;27;20012;-67
2024/01/12 00:04:31;;;;;;;;;;;-3275.40;85.10;;;;;;5114275;27;20359;-64
2024/01/12 00:07:04;;;;;;;;;;;-3275.50;85.20;;;;;;5099026;28;20383;-65
2024/01/12 00:09:37;;;;;;;;;;;-3275.50;85.20;;;;;;5106803;27;19950;-61
2024/01/12 00:12:10;;;;;;;;;;;-3275.50;85.20;;;;;;5093857;28;19951;-61
2024/01/12 00:14:45;;;;;;;;;;;-3275.60;85.30;;;;;;5093624;28;19928;-60
2024/01/12 00:17:19;;;;;;;;;;;-3275.60;85.30;;;;;;5111105;27;19934;-63
2024/01/12 00:19:51;;;;;;;;;;;-3275.60;85.40;;;;;;5118350;27;19976;-63
2024/01/12 00:22:25;;;;;;;;;;;-3275.60;85.50;;;;;;5119888;27;19955;-63
2024/01/12 00:24:57;;;;;;;;;;;-3275.60;85.40;;;;;;5112041;27;19955;-64
2024/01/12 00:27:31;;;;;;;;;;;-3275.60;85.50;;;;;;5105454;27;19924;-61
2024/01/12 00:30:06;;;;;;;;;;;-3275.60;85.70;;;;;;5096755;27;20401;-62
2024/01/12 00:32:40;;;;;;;;;;;-3275.70;85.70;;;;;;5113619;27;19923;-64
2024/01/12 00:35:12;;;;;;;;;;;-3275.70;85.80;;;;;;5119303;27;19931;-62
2024/01/12 00:37:48;;;;;;;;;;;-3275.70;85.80;;;;;;5114349;27;19938;-62
2024/01/12 00:40:28;;;;;;;;;;;-3275.80;85.70;;;;;;5110132;27;19978;-62
2024/01/12 00:43:01;;;;;;;;;;;-3275.80;85.70;;;;;;5107907;27;20005;-63
2024/01/12 00:45:36;;;;;;;;;;;-3275.80;85.80;;;;;;5104314;27;19928;-64
2024/01/12 00:48:09;;;;;;;;;;;-3275.80;85.80;;;;;;5091232;28;19932;-63
2024/01/12 00:50:43;;;;;;;;;;;-3275.90;86.10;;;;;;5088792;28;19951;-62
2024/01/12 00:53:16;;;;;;;;;;;-3275.90;86.00;;;;;;5090748;28;19939;-63
2024/01/12 00:55:50;;;;;;;;;;;-3276.00;86.00;;;;;;5104716;27;19978;-62
2024/01/12 00:58:22;;;;;;;;;;;-3276.00;86.00;;;;;;5110548;27;19927;-62
2024/01/12 01:00:57;;;;;;;;;;;-3276.00;85.90;;;;;;5108075;27;19930;-62
2024/01/12 01:03:31;;;;;;;;;;;-3276.10;86.20;;;;;;5112808;27;19956;-63
2024/01/12 01:06:04;;;;;;;;;;;-3276.10;86.30;;;;;;5116991;27;19934;-63
2024/01/12 01:08:37;;;;;;;;;;;-3276.10;86.20;;;;;;5117722;27;19928;-62
2024/01/12 01:11:10;;;;;;;;;;;-3276.10;86.40;;;;;;5107674;27;19934;-63
2024/01/12 01:13:43;;;;;;;;;;;-3276.20;86.30;;;;;;5110452;27;19935;-63
2024/01/12 01:16:17;;;;;;;;;;;-3276.20;86.60;;;;;;5110795;27;19931;-62
2024/01/12 01:18:50;;;;;;;;;;;-3276.20;86.40;;;;;;5118423;27;19931;-62
2024/01/12 01:21:24;;;;;;;;;;;-3276.20;86.30;;;;;;5093002;28;20038;-63
2024/01/12 01:23:57;;;;;;;;;;;-3276.20;86.30;;;;;;5091004;28;19928;-63
2024/01/12 01:26:30;;;;;;;;;;;-3276.30;86.50;;;;;;5088797;28;19936;-64
2024/01/12 01:28:56;;;;;;;;;;;-3276.30;86.50;;;;;;5115846;27;19931;-63
2024/01/12 01:31:31;;;;;;;;;;;-3276.30;86.40;;;;;;5116822;27;19931;-70
2024/01/12 01:34:04;;;;;;;;;;;-3276.30;86.30;;;;;;5110921;27;20011;-70
2024/01/12 01:36:38;;;;;;;;;;;-3276.30;86.30;;;;;;5099431;27;19924;-71
2024/01/12 01:39:11;;;;;;;;;;;-3276.40;86.50;;;;;;5102626;27;20454;-71
2024/01/12 01:41:44;;;;;;;;;;;-3276.40;86.30;;;;;;5117946;27;20427;-68
2024/01/12 01:44:17;;;;;;;;;;;-3276.40;86.10;;;;;;5103908;27;20428;-69
2024/01/12 01:46:51;;;;;;;;;;;-3276.40;86.20;;;;;;5098011;28;20324;-68
2024/01/12 01:49:25;;;;;;;;;;;-3276.40;86.40;;;;;;5113151;27;19927;-71
2024/01/12 01:51:51;;;;;;;;;;;-3276.40;86.50;;;;;;5110628;27;19928;-70
2024/01/12 01:54:25;;;;;;;;;;;-3276.50;86.40;;;;;;5092604;28;19928;-71
2024/01/12 01:56:58;;;;;;;;;;;-3276.50;86.40;;;;;;5117690;27;19927;-68
2024/01/12 01:59:31;;;;;;;;;;;-3276.50;86.40;;;;;;5102001;27;19928;-70
2024/01/12 02:02:06;;;;;;;;;;;-3276.60;86.50;;;;;;5116995;27;19932;-70
2024/01/12 02:04:40;;;;;;;;;;;-3276.60;86.50;;;;;;5112302;27;20018;-70
2024/01/12 02:07:13;;;;;;;;;;;-3276.60;86.70;;;;;;5117124;27;19929;-70
2024/01/12 02:09:46;;;;;;;;;;;-3276.60;86.60;;;;;;5118425;27;19928;-72
2024/01/12 02:12:19;;;;;;;;;;;-3276.60;86.60;;;;;;5114531;27;19954;-70
2024/01/12 02:14:58;;;;;;;;;;;-3276.60;86.80;;;;;;5113890;27;20378;-71
2024/01/12 02:17:33;;;;;;;;;;;-3276.60;86.80;;;;;;5111210;27;20336;-70
2024/01/12 02:20:07;;;;;;;;;;;-3276.60;86.70;;;;;;5109296;27;20001;-71
2024/01/12 02:22:42;;;;;;;;;;;-3276.60;86.70;;;;;;5110929;27;20409;-70
2024/01/12 02:25:17;;;;;;;;;;;-3276.70;86.80;;;;;;5100518;27;19927;-69
2024/01/12 02:27:50;;;;;;;;;;;-3276.70;86.90;;;;;;5108530;27;19928;-70
2024/01/12 02:30:29;;;;;;;;;;;-3276.70;86.90;;;;;;5102976;27;19969;-70
2024/01/12 02:33:04;;;;;;;;;;;-3276.70;86.90;;;;;;5093577;27;20333;-70
2024/01/12 02:35:38;;;;;;;;;;;0.00;87.00;;;;;;5108881;27;19962;-71
2024/01/12 02:38:18;;;;;;;;;;;0.00;87.40;;;;;;5116474;27;19930;-69
2024/01/12 02:40:52;;;;;;;;;;;0.00;87.20;;;;;;5108544;27;20019;-76
2024/01/12 02:43:25;;;;;;;;;;;0.00;87.20;;;;;;5110884;27;19927;-76
2024/01/12 02:45:58;;;;;;;;;;;0.00;87.30;;;;;;5098762;28;19927;-76
2024/01/12 02:48:31;;;;;;;;;;;0.00;87.40;;;;;;5090873;28;19952;-76
2024/01/12 02:51:04;;;;;;;;;;;0.00;87.40;;;;;;5104240;28;19927;-77
2024/01/12 02:53:38;;;;;;;;;;;0.00;87.20;;;;;;5112933;27;19931;-76
2024/01/12 02:56:13;;;;;;;;;;;0.00;87.30;;;;;;5116204;28;19955;-76
2024/01/12 02:58:46;;;;;;;;;;;0.00;87.30;;;;;;5116732;28;19934;-77
2024/01/12 03:01:19;;;;;;;;;;;0.00;87.30;;;;;;5107447;28;20000;-78
2024/01/12 03:03:53;;;;;;;;;;;0.00;87.30;;;;;;5102462;28;19928;-74
2024/01/12 03:06:26;;;;;;;;;;;0.00;87.10;;;;;;5092481;28;19928;-75
2024/01/12 03:09:00;;;;;;;;;;;0.00;87.30;;;;;;5084727;28;19928;-74
2024/01/12 03:11:34;;;;;;;;;;;0.00;87.30;;;;;;5088746;28;20025;-76
2024/01/12 03:14:07;;;;;;;;;;;0.00;87.30;;;;;;5092155;28;19928;-76
2024/01/12 03:16:40;;;;;;;;;;;0.10;87.20;;;;;;5090926;28;20026;-75
2024/01/12 03:19:13;;;;;;;;;;;0.10;87.20;;;;;;5119046;28;20023;-76
2024/01/12 03:21:46;;;;;;;;;;;0.10;87.20;;;;;;5102969;28;20003;-77
2024/01/12 03:24:20;;;;;;;;;;;0.10;87.30;;;;;;5102019;28;20371;-77
2024/01/12 03:26:54;;;;;;;;;;;0.10;87.40;;;;;;5102585;28;19940;-75
2024/01/12 03:29:27;;;;;;;;;;;0.10;87.30;;;;;;5111446;28;19924;-76
2024/01/12 03:32:00;;;;;;;;;;;0.10;87.30;;;;;;5099246;28;20355;-76
2024/01/12 03:34:33;;;;;;;;;;;0.10;87.60;;;;;;5104152;28;20279;-76
2024/01/12 03:37:06;;;;;;;;;;;0.10;87.60;;;;;;5105808;28;21971;-76
2024/01/12 03:39:40;;;;;;;;;;;0.10;87.60;;;;;;5093651;28;19931;-75
2024/01/12 03:42:14;;;;;;;;;;;0.10;87.60;;;;;;5103405;28;20383;-78
2024/01/12 03:44:47;;;;;;;;;;;0.20;87.60;;;;;;5102963;28;20000;-74
2024/01/12 03:47:20;;;;;;;;;;;0.10;87.70;;;;;;5106448;28;19934;-75
2024/01/12 03:49:59;;;;;;;;;;;0.10;87.80;;;;;;5112334;28;19947;-63
2024/01/12 03:52:33;;;;;;;;;;;0.20;87.70;;;;;;5098498;28;20271;-63
2024/01/12 03:55:08;;;;;;;;;;;0.20;88.00;;;;;;5112943;27;19999;-63
2024/01/12 03:57:42;;;;;;;;;;;0.20;87.90;;;;;;5109803;27;20010;-64
2024/01/12 04:00:15;;;;;;;;;;;0.20;88.00;;;;;;5118085;27;19931;-64
2024/01/12 04:02:49;;;;;;;;;;;0.20;88.00;;;;;;5119669;27;19924;-64
2024/01/12 04:05:22;;;;;;;;;;;0.20;88.00;;;;;;5114774;27;20365;-63
2024/01/12 04:07:55;;;;;;;;;;;0.20;88.00;;;;;;5118741;27;19930;-63
2024/01/12 04:10:29;;;;;;;;;;;0.20;88.00;;;;;;5101190;28;19924;-64
2024/01/12 04:13:02;;;;;;;;;;;0.20;88.00;;;;;;5090744;28;20371;-62
2024/01/12 04:15:35;;;;;;;;;;;0.20;88.10;;;;;;5095190;28;19934;-62
2024/01/12 04:18:08;;;;;;;;;;;0.20;88.00;;;;;;5093832;27;20018;-62
2024/01/12 04:20:41;;;;;;;;;;;0.30;87.90;;;;;;5104248;27;19932;-64
2024/01/12 04:23:14;;;;;;;;;;;0.30;87.90;;;;;;5116343;27;19934;-63
2024/01/12 04:25:48;;;;;;;;;;;0.30;88.00;;;;;;5117342;27;19935;-64
2024/01/12 04:28:22;;;;;;;;;;;0.20;88.00;;;;;;5107362;27;20404;-63
2024/01/12 04:30:55;;;;;;;;;;;0.20;87.90;;;;;;5098498;28;19925;-62
2024/01/12 04:33:28;;;;;;;;;;;0.30;87.90;;;;;;5094205;28;20030;-62
2024/01/12 04:36:01;;;;;;;;;;;0.30;88.10;;;;;;5107456;27;20036;-63
2024/01/12 04:38:35;;;;;;;;;;;0.30;88.00;;;;;;5107808;27;19935;-63
2024/01/12 04:41:09;;;;;;;;;;;0.30;88.10;;;;;;5115020;27;19927;-63
2024/01/12 04:43:42;;;;;;;;;;;0.30;88.10;;;;;;5117220;27;19924;-62
2024/01/12 04:46:15;;;;;;;;;;;0.30;88.00;;;;;;5112529;27;19932;-64
2024/01/12 04:48:48;;;;;;;;;;;0.30;87.90;;;;;;5108608;28;19924;-63
2024/01/12 04:51:21;;;;;;;;;;;0.30;87.90;;;;;;5111725;28;20392;-63
2024/01/12 04:53:54;;;;;;;;;;;0.30;88.00;;;;;;5115180;27;20411;-64
2024/01/12 04:56:28;;;;;;;;;;;0.30;88.00;;;;;;5106470;27;20010;-63
2024/01/12 04:59:02;;;;;;;;;;;0.30;87.90;;;;;;5095775;28;20344;-64
2024/01/12 05:01:35;;;;;;;;;;;0.30;87.90;;;;;;5107537;27;19954;-64
2024/01/12 05:04:08;;;;;;;;;;;0.30;88.00;;;;;;5093764;27;19928;-65
2024/01/12 05:06:41;;;;;;;;;;;0.40;88.00;;;;;;5103119;27;19934;-64
2024/01/12 05:09:14;;;;;;;;;;;0.40;87.90;;;;;;5110876;27;19974;-64
2024/01/12 05:11:49;;;;;;;;;;;0.40;88.00;;;;;;5103915;27;19963;-65
2024/01/12 05:14:23;;;;;;;;;;;0.40;88.00;;;;;;5091618;28;19975;-64
2024/01/12 05:16:56;;;;;;;;;;;0.40;88.00;;;;;;5106104;27;20263;-65
2024/01/12 05:19:29;;;;;;;;;;;0.40;88.10;;;;;;5119940;27;19928;-65
2024/01/12 05:22:02;;;;;;;;;;;0.40;88.00;;;;;;5108950;27;19974;-66
2024/01/12 05:24:28;;;;;;;;;;;0.40;88.00;;;;;;5106433;27;19924;-66
2024/01/12 05:27:03;;;;;;;;;;;0.40;88.10;;;;;;5109180;27;20812;-64
2024/01/12 05:29:37;;;;;;;;;;;0.40;88.00;;;;;;5108907;27;19959;-65
2024/01/12 05:32:10;;;;;;;;;;;0.40;88.00;;;;;;5119501;27;19954;-63
2024/01/12 05:34:43;;;;;;;;;;;0.40;88.00;;;;;;5111382;27;20366;-66
2024/01/12 05:37:16;;;;;;;;;;;0.40;88.10;;;;;;5117977;27;19945;-64
2024/01/12 05:39:49;;;;;;;;;;;0.40;88.00;;;;;;5095576;27;20038;-64
2024/01/12 05:42:23;;;;;;;;;;;0.40;88.00;;;;;;5104703;27;19962;-64
2024/01/12 05:44:56;;;;;;;;;;;0.40;87.90;;;;;;5097243;28;19931;-65
2024/01/12 05:47:29;;;;;;;;;;;0.40;88.40;;;;;;5102630;27;20007;-64
2024/01/12 05:50:03;;;;;;;;;;;0.40;88.20;;;;;;5096561;27;19927;-64
2024/01/12 05:52:36;;;;;;;;;;;0.40;88.20;;;;;;5091354;28;19928;-64
2024/01/12 05:55:09;;;;;;;;;;;0.40;88.20;;;;;;5089841;28;19939;-66
2024/01/12 05:57:43;;;;;;;;;;;0.40;88.20;;;;;;5088546;28;20013;-64
2024/01/12 06:00:17;;;;;;;;;;;0.40;88.20;;;;;;5087661;28;19951;-64
2024/01/12 06:02:50;;;;;;;;;;;0.40;88.10;;;;;;5098763;28;19956;-66
2024/01/12 06:05:23;;;;;;;;;;;0.40;88.10;;;;;;5089634;28;19939;-63
2024/01/12 06:07:56;;;;;;;;;;;0.40;88.00;;;;;;5114338;27;20375;-63
2024/01/12 06:10:29;;;;;;;;;;;0.40;88.20;;;;;;5103265;27;19924;-61
2024/01/12 06:13:04;;;;;;;;;;;0.40;88.10;;;;;;5098885;27;20389;-59
2024/01/12 06:15:37;;;;;;;;;;;0.50;88.20;;;;;;5090239;28;19931;-60
2024/01/12 06:18:10;;;;;;;;;;;0.50;88.20;;;;;;5107380;27;19924;-60
2024/01/12 06:20:43;;;;;;;;;;;0.50;88.20;;;;;;5098531;28;19930;-60
2024/01/12 06:23:16;;;;;;;;;;;0.40;88.20;;;;;;5114031;27;20011;-60
2024/01/12 06:25:49;;;;;;;;;;;0.50;88.30;;;;;;5108890;27;20003;-61
2024/01/12 06:28:23;;;;;;;;;;;0.50;88.20;;;;;;5114161;27;19932;-59
2024/01/12 06:30:57;;;;;;;;;;;0.50;88.20;;;;;;5111447;27;20328;-59
2024/01/12 06:33:31;;;;;;;;;;;0.50;88.10;;;;;;5090336;28;20452;-61
2024/01/12 06:36:04;;;;;;;;;;;0.50;88.10;;;;;;5102371;27;20282;-60
2024/01/12 06:38:37;;;;;;;;;;;0.50;88.10;;;;;;5103326;27;19982;-60
2024/01/12 06:41:10;;;;;;;;;;;0.50;88.20;;;;;;5093554;28;20011;-60
2024/01/12 06:43:44;;;;;;;;;;;0.50;88.40;;;;;;5114291;27;20023;-59
2024/01/12 06:46:17;;;;;;;;;;;0.50;88.20;;;;;;5108708;27;19939;-60
2024/01/12 06:48:50;;;;;;;;;;;0.50;88.30;;;;;;5117613;27;19923;-61
2024/01/12 06:51:23;;;;;;;;;;;0.50;88.30;;;;;;5105547;28;19924;-60
2024/01/12 06:53:57;;;;;;;;;;;0.50;88.20;;;;;;5095874;28;19928;-60
2024/01/12 06:56:30;;;;;;;;;;;0.50;88.20;;;;;;5107737;28;19924;-60
2024/01/12 06:59:06;;;;;;;;;;;0.40;88.20;;;;;;5109715;28;19930;-60
2024/01/12 07:01:39;;;;;;;;;;;0.50;88.20;;;;;;5102596;28;19935;-59
2024/01/12 07:04:05;;;;;;;;;;;0.50;88.40;;;;;;5092909;28;19931;-59
2024/01/12 07:06:39;;;;;;;;;;;0.50;88.30;;;;;;5104111;28;20059;-60
2024/01/12 07:09:13;;;;;;;;;;;0.50;88.40;;;;;;5103625;28;20301;-60
2024/01/12 07:11:46;;;;;;;;;;;0.50;88.30;;;;;;5089411;28;19989;-64
2024/01/12 07:14:20;;;;;;;;;;;0.50;88.20;;;;;;5118026;28;20445;-60
2024/01/12 07:16:54;;;;;;;;;;;0.50;88.30;;;;;;5113699;28;19931;-60
2024/01/12 07:19:27;;;;;;;;;;;0.50;88.20;;;;;;5097991;28;19959;-60
2024/01/12 07:22:14;;;;;;;;;;;0.50;88.30;;;;;;5107027;28;20457;-71
2024/01/12 07:24:54;;;;;;;;;;;0.50;88.10;;;;;;5107503;28;19927;-70
2024/01/12 07:27:28;;;;;;;;;;;0.50;88.30;;;;;;5094942;28;19932;-72
2024/01/12 07:30:03;;;;;;;;;;;0.50;88.20;;;;;;5109370;27;19924;-70
2024/01/12 07:32:36;;;;;;;;;;;0.50;88.30;;;;;;5113488;27;20404;-71
2024/01/12 07:35:09;;;;;;;;;;;0.50;88.10;;;;;;5119848;27;19928;-69
2024/01/12 07:37:43;;;;;;;;;;;0.60;88.00;;;;;;5101403;28;19931;-71
2024/01/12 07:40:16;;;;;;;;;;;0.60;88.10;;;;;;5096422;28;20007;-70
2024/01/12 07:42:49;;;;;;;;;;;0.50;88.20;;;;;;5116116;27;19924;-71
2024/01/12 07:45:23;;;;;;;;;;;0.60;88.10;;;;;;5094042;28;20023;-70
2024/01/12 07:47:57;;;;;;;;;;;0.60;88.00;;;;;;5109891;27;20783;-71
2024/01/12 07:50:30;;;;;;;;;;;0.60;88.00;;;;;;5105596;27;20120;-71
2024/01/12 07:53:03;;;;;;;;;;;0.60;88.10;;;;;;5122796;27;19928;-70
2024/01/12 07:55:36;;;;;;;;;;;0.60;88.00;;;;;;5111080;27;20013;-71
2024/01/12 07:58:09;;;;;;;;;;;0.60;87.90;;;;;;5103656;28;20015;-70
2024/01/12 08:00:49;;;;;;;;;;;0.60;88.00;;;;;;5109109;28;20031;-70
2024/01/12 08:03:23;;;;;;;;;;;0.60;88.10;;;;;;5121188;27;20438;-71
2024/01/12 08:05:56;;;;;;;;;;;0.60;88.10;;;;;;5109281;27;19923;-70
2024/01/12 08:08:29;;;;;;;;;;;0.60;88.00;;;;;;5115668;27;20010;-71
2024/01/12 08:11:02;;;;;;;;;;;0.60;88.00;;;;;;5096538;27;19928;-71
2024/01/12 08:13:35;;;;;;;;;;;0.60;88.00;;;;;;5100748;27;19995;-70
2024/01/12 08:16:09;;;;;;;;;;;0.70;88.10;;;;;;5118336;27;19930;-71
2024/01/12 08:18:43;;;;;;;;;;;0.70;88.10;;;;;;5122217;27;19980;-71
2024/01/12 08:21:16;;;;;;;;;;;0.70;88.10;;;;;;5103054;27;19935;-71
2024/01/12 08:23:49;;;;;;;;;;;0.70;88.00;;;;;;5090594;28;19935;-71
2024/01/12 08:26:22;;;;;;;;;;;0.70;88.20;;;;;;5093868;28;19997;-71
2024/01/12 08:28:56;;;;;;;;;;;0.70;88.20;;;;;;5115953;27;19928;-71
2024/01/12 08:31:30;;;;;;;;;;;0.70;88.30;;;;;;5119865;27;20422;-63
2024/01/12 08:34:04;;;;;;;;;;;0.70;88.30;;;;;;5119618;27;19927;-62
2024/01/12 08:36:38;;;;;;;;;;;0.70;88.30;;;;;;5106008;27;19935;-63
2024/01/12 08:39:12;;;;;;;;;;;0.70;88.30;;;;;;5111506;27;19928;-62
2024/01/12 08:41:45;;;;;;;;;;;0.70;88.30;;;;;;5111239;27;19998;-61
2024/01/12 08:44:18;;;;;;;;;;;0.70;88.30;;;;;;5107044;27;19931;-64
2024/01/12 08:46:53;;;;;;;;;;;0.80;88.30;;;;;;5094365;28;19931;-63
2024/01/12 08:49:27;;;;;;;;;;;0.80;88.30;;;;;;5111562;27;19924;-63
2024/01/12 08:51:53;;;;;;;;;;;0.80;88.30;;;;;;5108035;27;19938;-64
2024/01/12 08:54:27;;;;;;;;;;;0.80;88.30;;;;;;5106901;27;19951;-61
2024/01/12 08:57:00;;;;;;;;;;;0.80;88.30;;;;;;5110119;27;19931;-62
2024/01/12 08:59:33;;;;;;;;;;;0.80;88.30;;;;;;5106221;27;19963;-62
2024/01/12 09:02:07;;;;;;;;;;;0.80;88.30;;;;;;5100608;27;19932;-64
2024/01/12 09:04:41;;;;;;;;;;;0.90;88.20;;;;;;5094345;28;19954;-63
2024/01/12 09:07:14;;;;;;;;;;;0.90;88.10;;;;;;5106442;27;19927;-65
2024/01/12 09:09:47;;;;;;;;;;;0.90;88.10;;;;;;5108891;27;20382;-62
2024/01/12 09:12:20;;;;;;;;;;;0.90;88.10;;;;;;5109867;27;19930;-63
2024/01/12 09:14:53;;;;;;;;;;;0.90;88.20;;;;;;5112095;27;19959;-64
2024/01/12 09:17:27;;;;;;;;;;;0.90;88.30;;;;;;5114648;27;19928;-62
2024/01/12 09:20:01;;;;;;;;;;;0.90;88.30;;;;;;5105990;27;20002;-62
2024/01/12 09:22:34;;;;;;;;;;;0.90;88.30;;;;;;5106191;27;19935;-64
2024/01/12 09:25:07;;;;;;;;;;;1.00;88.30;;;;;;5113666;27;20025;-64
2024/01/12 09:27:41;;;;;;;;;;;0.90;88.40;;;;;;5108035;27;19973;-64
2024/01/12 09:30:14;;;;;;;;;;;0.90;88.30;;;;;;5103511;27;19931;-62
2024/01/12 09:32:48;;;;;;;;;;;1.00;88.40;;;;;;5094914;28;19924;-64
2024/01/12 09:35:22;;;;;;;;;;;0.90;88.40;;;;;;5110138;27;19978;-63
2024/01/12 09:37:55;;;;;;;;;;;1.00;88.30;;;;;;5098940;27;20009;-64
2024/01/12 09:40:28;;;;;;;;;;;1.00;88.20;;;;;;5113618;27;19934;-65
2024/01/12 09:43:01;;;;;;;;;;;1.00;88.20;;;;;;5109077;27;20374;-66
2024/01/12 09:45:37;;;;;;;;;;;1.00;88.20;;;;;;5119778;27;19939;-63
2024/01/12 09:48:12;;;;;;;;;;;1.00;88.20;;;;;;5114583;27;20023;-65
2024/01/12 09:50:45;;;;;;;;;;;1.00;88.20;;;;;;5107614;27;20450;-66
2024/01/12 09:53:19;;;;;;;;;;;1.00;88.20;;;;;;5106472;27;19928;-65
2024/01/12 09:55:53;;;;;;;;;;;1.00;88.00;;;;;;5098986;27;20035;-64
2024/01/12 09:58:26;;;;;;;;;;;1.10;88.10;;;;;;5113171;27;20370;-65
2024/01/12 10:00:59;;;;;;;;;;;1.10;87.90;;;;;;5111506;27;20393;-65
2024/01/12 10:03:34;;;;;;;;;;;1.20;87.90;;;;;;5104038;27;19946;-65
2024/01/12 10:06:07;;;;;;;;;;;1.10;87.80;;;;;;5098814;28;20477;-64
2024/01/12 10:08:40;;;;;;;;;;;1.10;87.60;;;;;;5107064;27;19928;-66
2024/01/12 10:11:14;;;;;;;;;;;1.20;87.70;;;;;;5109239;28;20378;-65
2024/01/12 10:13:48;;;;;;;;;;;1.20;87.60;;;;;;5105911;27;20412;-65
2024/01/12 10:16:27;;;;;;;;;;;1.20;87.60;;;;;;5110018;27;19924;-66
2024/01/12 10:19:02;;;;;;;;;;;1.20;87.60;;;;;;5105355;27;19959;-64
2024/01/12 10:21:38;;;;;;;;;;;1.20;87.40;;;;;;5094454;28;20408;-65
2024/01/12 10:24:12;;;;;;;;;;;1.20;87.40;;;;;;5090403;28;19924;-65
2024/01/12 10:26:46;;;;;;;;;;;1.30;87.40;;;;;;5113868;27;19939;-66
2024/01/12 10:29:19;;;;;;;;;;;1.30;87.30;;;;;;5099619;28;19977;-67
2024/01/12 10:31:52;;;;;;;;;;;1.30;87.30;;;;;;5093226;28;19924;-64
2024/01/12 10:34:33;;;;;;;;;;;1.30;87.20;;;;;;5106421;27;19935;-64
2024/01/12 10:37:08;;;;;;;;;;;1.30;87.10;;;;;;5092003;28;19932;-64
2024/01/12 10:39:44;;;;;;;;;;;1.30;86.90;;;;;;5099230;27;19931;-65
2024/01/12 10:42:24;;;;;;;;;;;1.30;86.90;;;;;;5111879;27;19934;-66
2024/01/12 10:44:58;;;;;;;;;;;1.30;86.80;;;;;;5097197;28;19939;-64
2024/01/12 10:47:33;;;;;;;;;;;1.40;86.70;;;;;;5118341;27;19928;-66
2024/01/12 10:50:11;;;;;;;;;;;1.30;86.70;;;;;;5117970;27;20389;-60
2024/01/12 10:52:47;;;;;;;;;;;1.40;86.60;;;;;;5109539;27;19931;-60
2024/01/12 10:55:22;;;;;;;;;;;1.40;86.60;;;;;;5117307;27;19939;-59
2024/01/12 10:57:56;;;;;;;;;;;1.40;86.50;;;;;;5106924;28;20018;-59
2024/01/12 11:00:30;;;;;;;;;;;1.40;86.40;;;;;;5103051;28;19924;-61
2024/01/12 11:03:05;;;;;;;;;;;1.50;86.30;;;;;;5102512;28;19930;-59
2024/01/12 11:05:39;;;;;;;;;;;1.50;86.10;;;;;;5112722;27;19928;-61
2024/01/12 11:08:13;;;;;;;;;;;1.50;86.20;;;;;;5117464;28;19927;-61
2024/01/12 11:10:50;;;;;;;;;;;1.50;86.00;;;;;;5106887;28;19973;-61
2024/01/12 11:13:23;;;;;;;;;;;1.50;86.00;;;;;;5090131;28;19928;-60
2024/01/12 11:15:57;;;;;;;;;;;1.50;85.90;;;;;;5100772;28;20014;-60
2024/01/12 11:18:30;;;;;;;;;;;1.40;86.10;;;;;;5109569;28;19924;-59
2024/01/12 11:21:05;;;;;;;;;;;1.40;86.20;;;;;;5113595;28;20023;-60
2024/01/12 11:23:40;;;;;;;;;;;1.40;86.30;;;;;;5097947;28;19992;-60
2024/01/12 11:26:13;;;;;;;;;;;1.50;86.30;;;;;;5104148;28;19924;-61
2024/01/12 11:28:46;;;;;;;;;;;1.50;86.10;;;;;;5104840;28;19923;-60
2024/01/12 11:31:26;;;;;;;;;;;1.50;86.20;;;;;;5106199;28;19927;-59
2024/01/12 11:34:00;;;;;;;;;;;1.50;86.20;;;;;;5118761;28;19927;-59
2024/01/12 11:36:34;;;;;;;;;;;1.50;86.30;;;;;;5100052;28;19932;-61
2024/01/12 11:39:11;;;;;;;;;;;1.60;86.20;;;;;;5098824;28;19931;-61
2024/01/12 11:41:44;;;;;;;;;;;1.60;86.20;;;;;;5096703;28;19931;-61
2024/01/12 11:44:18;;;;;;;;;;;1.60;86.20;;;;;;5098651;28;20375;-59
2024/01/12 11:46:51;;;;;;;;;;;1.50;86.00;;;;;;5098168;28;20010;-61
2024/01/12 11:49:25;;;;;;;;;;;1.50;86.20;;;;;;5096816;28;19928;-60
2024/01/12 11:52:04;;;;;;;;;;;1.50;86.10;;;;;;5098203;28;20371;-61
2024/01/12 11:54:38;;;;;;;;;;;1.50;86.10;;;;;;5086530;28;19924;-59
2024/01/12 11:57:12;;;;;;;;;;;1.50;86.00;;;;;;5088719;28;19924;-60
2024/01/12 11:59:45;;;;;;;;;;;1.60;86.00;;;;;;5105234;28;19927;-76
2024/01/12 12:02:18;;;;;;;;;;;1.60;86.00;;;;;;5095210;28;20436;-74
2024/01/12 12:04:53;;;;;;;;;;;1.50;86.10;;;;;;5109770;28;20003;-75
2024/01/12 12:07:28;;;;;;;;;;;1.60;86.20;;;;;;5116270;28;19923;-77
2024/01/12 12:10:02;;;;;;;;;;;1.60;86.20;;;;;;5117242;28;19962;-74
2024/01/12 12:12:35;;;;;;;;;;;1.60;86.10;;;;;;5108627;28;19985;-76
2024/01/12 12:15:10;;;;;;;;;;;1.50;86.20;;;;;;5107660;28;20283;-75
2024/01/12 12:17:44;;;;;;;;;;;1.50;86.30;;;;;;5093601;27;20380;-77
2024/01/12 12:20:17;;;;;;;;;;;1.50;86.30;;;;;;5113511;27;20368;-75
2024/01/12 12:22:45;;;;;;;;;;;1.60;86.30;;;;;;5107860;27;19924;-77
2024/01/12 12:25:19;;;;;;;;;;;1.50;86.30;;;;;;5097672;28;19969;-76
2024/01/12 12:27:53;;;;;;;;;;;1.50;86.20;;;;;;5110314;28;20405;-77
2024/01/12 12:30:28;;;;;;;;;;;1.50;86.30;;;;;;5093848;28;20046;-77
2024/01/12 12:33:03;;;;;;;;;;;1.50;86.30;;;;;;5116505;27;19939;-77
2024/01/12 12:35:36;;;;;;;;;;;1.50;86.40;;;;;;5110752;27;20012;-75
2024/01/12 12:38:10;;;;;;;;;;;1.40;86.60;;;;;;5098915;28;19927;-74
2024/01/12 12:40:47;;;;;;;;;;;1.50;86.40;;;;;;5097715;27;19973;-77
2024/01/12 12:43:22;;;;;;;;;;;1.50;86.30;;;;;;5100229;27;19972;-75
2024/01/12 12:45:55;;;;;;;;;;;1.50;86.30;;;;;;5088133;27;19931;-75
2024/01/12 12:48:25;;;;;;;;;;;1.50;86.30;;;;;;5120603;27;19923;-75
2024/01/12 12:50:58;;;;;;;;;;;1.50;86.30;;;;;;5086833;28;19947;-75
2024/01/12 12:53:32;;;;;;;;;;;1.60;86.30;;;;;;5108337;27;19930;-77
2024/01/12 12:56:06;;;;;;;;;;;1.50;86.10;;;;;;5104267;27;20014;-77
2024/01/12 12:58:33;;;;;;;;;;;1.50;86.10;;;;;;5087620;28;19932;-76
2024/01/12 13:01:06;;;;;;;;;;;1.60;86.00;;;;;;5092020;28;20371;-78
2024/01/12 13:03:39;;;;;;;;;;;1.60;86.00;;;;;;5119000;27;20454;-80
2024/01/12 13:06:13;;;;;;;;;;;1.50;86.00;;;;;;5118744;27;19927;-80
2024/01/12 13:08:48;;;;;;;;;;;1.60;86.00;;;;;;5108492;27;19940;-79
2024/01/12 13:11:22;;;;;;;;;;;1.60;86.00;;;;;;5118704;27;20058;-60
2024/01/12 13:13:56;;;;;;;;;;;1.50;86.00;;;;;;5112670;27;19924;-61
2024/01/12 13:16:29;;;;;;;;;;;1.60;86.10;;;;;;5113382;27;19923;-59
2024/01/12 13:19:03;;;;;;;;;;;1.60;86.00;;;;;;5110835;27;19924;-60
2024/01/12 13:21:37;;;;;;;;;;;1.50;86.00;;;;;;5103213;27;19925;-61
2024/01/12 13:24:11;;;;;;;;;;;1.50;86.10;;;;;;5105251;27;19923;-58
2024/01/12 13:26:45;;;;;;;;;;;1.50;86.10;;;;;;5069152;28;21380;-61
2024/01/12 13:29:18;;;;;;;;;;;1.50;86.20;;;;;;5104353;27;19927;-60
2024/01/12 13:31:51;;;;;;;;;;;1.40;86.20;;;;;;5092887;27;19978;-59
2024/01/12 13:34:25;;;;;;;;;;;1.50;86.40;;;;;;5091556;28;19946;-60
2024/01/12 13:37:01;;;;;;;;;;;1.40;86.50;;;;;;5107703;27;19953;-59
2024/01/12 13:39:35;;;;;;;;;;;1.40;86.60;;;;;;5115154;27;20052;-60
2024/01/12 13:42:09;;;;;;;;;;;1.40;86.70;;;;;;5092323;28;19932;-61
2024/01/12 13:44:42;;;;;;;;;;;1.40;86.70;;;;;;5093814;27;19928;-61
2024/01/12 13:47:15;;;;;;;;;;;1.40;86.80;;;;;;5118576;27;19924;-60
2024/01/12 13:49:48;;;;;;;;;;;1.40;86.70;;;;;;5116657;27;19927;-60
2024/01/12 13:52:21;;;;;;;;;;;1.50;86.70;;;;;;5111757;27;20352;-61
2024/01/12 13:54:55;;;;;;;;;;;1.50;86.50;;;;;;5116909;27;19931;-60
2024/01/12 13:57:22;;;;;;;;;;;1.40;86.70;;;;;;5118559;27;19942;-59
2024/01/12 13:59:55;;;;;;;;;;;1.40;86.80;;;;;;5103729;27;19988;-59
2024/01/12 14:02:28;;;;;;;;;;;1.40;86.80;;;;;;5098199;28;19937;-60
2024/01/12 14:04:55;;;;;;;;;;;1.40;86.80;;;;;;5114211;27;20001;-60
2024/01/12 14:07:28;;;;;;;;;;;1.40;86.90;;;;;;5098740;28;19931;-60
2024/01/12 14:10:02;;;;;;;;;;;1.30;87.00;;;;;;5102728;27;19955;-60
2024/01/12 14:12:37;;;;;;;;;;;1.30;87.00;;;;;;5085522;28;19970;-59
2024/01/12 14:15:10;;;;;;;;;;;1.40;87.00;;;;;;5110117;27;20475;-60
2024/01/12 14:17:43;;;;;;;;;;;1.40;86.90;;;;;;5087456;28;19931;-60
2024/01/12 14:20:18;;;;;;;;;;;1.40;86.80;;;;;;5115540;27;20086;-69
2024/01/12 14:22:51;;;;;;;;;;;1.40;86.80;;;;;;5111181;27;20330;-70
2024/01/12 14:25:25;;;;;;;;;;;1.40;86.70;;;;;;5104911;27;20089;-71
2024/01/12 14:28:06;;;;;;;;;;;1.40;86.60;;;;;;5108662;27;19927;-70
2024/01/12 14:30:45;;;;;;;;;;;1.30;86.50;;;;;;5093832;27;19928;-70
2024/01/12 14:33:19;;;;;;;;;;;1.30;86.70;;;;;;5108851;27;19958;-71
2024/01/12 14:35:53;;;;;;;;;;;1.30;86.70;;;;;;5097557;28;19969;-71
2024/01/12 14:38:26;;;;;;;;;;;1.30;86.80;;;;;;5088660;28;19974;-70
2024/01/12 14:41:00;;;;;;;;;;;1.30;86.80;;;;;;5087894;28;19924;-69
2024/01/12 14:43:34;;;;;;;;;;;1.30;86.80;;;;;;5102918;27;19927;-71
2024/01/12 14:46:08;;;;;;;;;;;1.30;86.80;;;;;;5102929;27;19934;-71
2024/01/12 14:48:42;;;;;;;;;;;1.30;86.80;;;;;;5091247;28;19951;-70
2024/01/12 14:51:15;;;;;;;;;;;1.30;86.80;;;;;;5090670;28;19928;-71
2024/01/12 14:53:48;;;;;;;;;;;1.30;86.80;;;;;;5104212;27;19928;-70
2024/01/12 14:56:23;;;;;;;;;;;1.30;86.80;;;;;;5095564;28;19923;-70
2024/01/12 14:58:57;;;;;;;;;;;1.30;86.90;;;;;;5097531;28;20050;-70